sensor_id;sensor_type;location;lat;lon;timestamp;P1;durP1;ratioP1;P2;durP2;ratioP2
70953;SDS011;58618;47.490;8.736;2023-11-21T00:00:43;7.20;;;1.80;;
70953;SDS011;58618;47.490;8.736;2023-11-21T00:03:31;5.47;;;1.40;;
70953;SDS011;58618;47.490;8.736;2023-11-21T00:06:19;8.40;;;1.38;;
70953;SDS011;58618;47.490;8.736;2023-11-21T00:09:07;8.27;;;1.20;;
70953;SDS011;58618;47.490;8.736;2023-11-21T00:11:55;5.88;;;1.27;;
70953;SDS011;58618;47.490;8.736;2023-11-21T00:14:43;6.10;;;0.90;;
70953;SDS011;58618;47.490;8.736;2023-11-21T00:17:30;6.07;;;1.20;;
70953;SDS011;58618;47.490;8.736;2023-11-21T00:20:18;6.57;;;1.10;;
70953;SDS011;58618;47.490;8.736;2023-11-21T00:23:05;9.23;;;1.40;;
70953;SDS011;58618;47.490;8.736;2023-11-21T00:25:54;5.57;;;1.20;;
70953;SDS011;58618;47.490;8.736;2023-11-21T00:28:41;5.43;;;1.17;;
70953;SDS011;58618;47.490;8.736;2023-11-21T00:31:29;4.25;;;1.10;;
70953;SDS011;58618;47.490;8.736;2023-11-21T00:34:17;7.55;;;1.60;;
70953;SDS011;58618;47.490;8.736;2023-11-21T00:37:05;4.93;;;1.38;;
70953;SDS011;58618;47.490;8.736;2023-11-21T00:39:53;4.53;;;1.20;;
70953;SDS011;58618;47.490;8.736;2023-11-21T00:42:42;5.23;;;1.13;;
70953;SDS011;58618;47.490;8.736;2023-11-21T00:45:30;4.78;;;1.67;;
70953;SDS011;58618;47.490;8.736;2023-11-21T00:48:17;6.18;;;1.83;;
70953;SDS011;58618;47.490;8.736;2023-11-21T00:51:05;5.25;;;1.00;;
70953;SDS011;58618;47.490;8.736;2023-11-21T00:53:53;5.45;;;1.20;;
70953;SDS011;58618;47.490;8.736;2023-11-21T00:56:40;9.87;;;1.40;;
70953;SDS011;58618;47.490;8.736;2023-11-21T00:59:29;2.33;;;1.02;;
70953;SDS011;58618;47.490;8.736;2023-11-21T01:02:16;3.92;;;1.10;;
70953;SDS011;58618;47.490;8.736;2023-11-21T01:05:04;6.40;;;1.30;;
70953;SDS011;58618;47.490;8.736;2023-11-21T01:07:53;5.93;;;1.10;;
70953;SDS011;58618;47.490;8.736;2023-11-21T01:10:41;3.63;;;1.10;;
70953;SDS011;58618;47.490;8.736;2023-11-21T01:13:29;7.40;;;1.50;;
70953;SDS011;58618;47.490;8.736;2023-11-21T01:16:18;6.00;;;1.20;;
70953;SDS011;58618;47.490;8.736;2023-11-21T01:19:06;6.20;;;1.30;;
70953;SDS011;58618;47.490;8.736;2023-11-21T01:21:53;4.68;;;1.27;;
70953;SDS011;58618;47.490;8.736;2023-11-21T01:24:40;3.40;;;1.10;;
70953;SDS011;58618;47.490;8.736;2023-11-21T01:27:28;5.40;;;1.38;;
70953;SDS011;58618;47.490;8.736;2023-11-21T01:30:15;6.57;;;1.25;;
70953;SDS011;58618;47.490;8.736;2023-11-21T01:33:04;6.47;;;1.92;;
70953;SDS011;58618;47.490;8.736;2023-11-21T01:35:51;5.20;;;1.30;;
70953;SDS011;58618;47.490;8.736;2023-11-21T01:38:40;3.33;;;1.10;;
70953;SDS011;58618;47.490;8.736;2023-11-21T01:41:28;5.22;;;0.98;;
70953;SDS011;58618;47.490;8.736;2023-11-21T01:44:16;4.40;;;1.40;;
70953;SDS011;58618;47.490;8.736;2023-11-21T01:47:05;3.35;;;1.10;;
70953;SDS011;58618;47.490;8.736;2023-11-21T01:49:54;5.38;;;1.40;;
70953;SDS011;58618;47.490;8.736;2023-11-21T01:52:42;4.47;;;1.33;;
70953;SDS011;58618;47.490;8.736;2023-11-21T01:55:30;5.20;;;1.15;;
70953;SDS011;58618;47.490;8.736;2023-11-21T01:58:19;4.57;;;1.00;;
70953;SDS011;58618;47.490;8.736;2023-11-21T02:01:07;5.40;;;1.27;;
70953;SDS011;58618;47.490;8.736;2023-11-21T02:03:58;4.53;;;1.40;;
70953;SDS011;58618;47.490;8.736;2023-11-21T02:11:06;2.75;;;1.02;;
70953;SDS011;58618;47.490;8.736;2023-11-21T02:13:53;3.63;;;1.15;;
70953;SDS011;58618;47.490;8.736;2023-11-21T02:16:41;6.85;;;1.77;;
70953;SDS011;58618;47.490;8.736;2023-11-21T02:19:31;3.50;;;1.60;;
70953;SDS011;58618;47.490;8.736;2023-11-21T02:22:20;3.83;;;1.00;;
70953;SDS011;58618;47.490;8.736;2023-11-21T02:25:09;2.17;;;1.00;;
70953;SDS011;58618;47.490;8.736;2023-11-21T02:27:57;5.65;;;1.35;;
70953;SDS011;58618;47.490;8.736;2023-11-21T02:30:46;6.70;;;1.38;;
70953;SDS011;58618;47.490;8.736;2023-11-21T02:33:41;5.60;;;1.58;;
70953;SDS011;58618;47.490;8.736;2023-11-21T02:36:29;5.57;;;1.40;;
70953;SDS011;58618;47.490;8.736;2023-11-21T02:39:17;5.65;;;1.27;;
70953;SDS011;58618;47.490;8.736;2023-11-21T02:42:09;7.40;;;1.90;;
70953;SDS011;58618;47.490;8.736;2023-11-21T02:44:56;5.57;;;1.60;;
70953;SDS011;58618;47.490;8.736;2023-11-21T02:47:44;6.07;;;1.27;;
70953;SDS011;58618;47.490;8.736;2023-11-21T02:50:31;5.13;;;1.37;;
70953;SDS011;58618;47.490;8.736;2023-11-21T02:53:19;7.82;;;1.70;;
70953;SDS011;58618;47.490;8.736;2023-11-21T02:56:07;6.47;;;1.13;;
70953;SDS011;58618;47.490;8.736;2023-11-21T02:58:56;4.15;;;1.27;;
70953;SDS011;58618;47.490;8.736;2023-11-21T03:01:44;5.07;;;1.40;;
70953;SDS011;58618;47.490;8.736;2023-11-21T03:04:31;6.60;;;1.30;;
70953;SDS011;58618;47.490;8.736;2023-11-21T03:07:19;5.10;;;1.20;;
70953;SDS011;58618;47.490;8.736;2023-11-21T03:10:07;7.07;;;1.45;;
70953;SDS011;58618;47.490;8.736;2023-11-21T03:12:56;3.17;;;1.23;;
70953;SDS011;58618;47.490;8.736;2023-11-21T03:15:45;7.20;;;1.27;;
70953;SDS011;58618;47.490;8.736;2023-11-21T03:18:33;4.40;;;0.80;;
70953;SDS011;58618;47.490;8.736;2023-11-21T03:21:20;2.67;;;1.10;;
70953;SDS011;58618;47.490;8.736;2023-11-21T03:24:08;2.15;;;1.00;;
70953;SDS011;58618;47.490;8.736;2023-11-21T03:26:55;4.22;;;1.10;;
70953;SDS011;58618;47.490;8.736;2023-11-21T03:29:43;3.42;;;1.00;;
70953;SDS011;58618;47.490;8.736;2023-11-21T03:32:32;2.70;;;0.80;;
70953;SDS011;58618;47.490;8.736;2023-11-21T03:35:21;7.85;;;1.15;;
70953;SDS011;58618;47.490;8.736;2023-11-21T03:38:09;4.07;;;1.13;;
70953;SDS011;58618;47.490;8.736;2023-11-21T03:40:57;4.53;;;1.02;;
70953;SDS011;58618;47.490;8.736;2023-11-21T03:43:45;6.07;;;1.13;;
70953;SDS011;58618;47.490;8.736;2023-11-21T03:46:32;4.13;;;1.07;;
70953;SDS011;58618;47.490;8.736;2023-11-21T03:49:21;2.17;;;0.90;;
70953;SDS011;58618;47.490;8.736;2023-11-21T03:52:10;3.28;;;1.10;;
70953;SDS011;58618;47.490;8.736;2023-11-21T03:54:57;4.30;;;1.30;;
70953;SDS011;58618;47.490;8.736;2023-11-21T03:57:44;2.63;;;1.02;;
70953;SDS011;58618;47.490;8.736;2023-11-21T04:00:32;3.47;;;1.03;;
70953;SDS011;58618;47.490;8.736;2023-11-21T04:03:19;7.97;;;1.42;;
70953;SDS011;58618;47.490;8.736;2023-11-21T04:06:08;3.65;;;1.42;;
70953;SDS011;58618;47.490;8.736;2023-11-21T04:08:56;5.22;;;1.00;;
70953;SDS011;58618;47.490;8.736;2023-11-21T04:11:43;2.35;;;1.50;;
70953;SDS011;58618;47.490;8.736;2023-11-21T04:14:31;5.67;;;1.30;;
70953;SDS011;58618;47.490;8.736;2023-11-21T04:17:18;4.57;;;1.13;;
70953;SDS011;58618;47.490;8.736;2023-11-21T04:20:06;4.57;;;1.20;;
70953;SDS011;58618;47.490;8.736;2023-11-21T04:22:57;2.45;;;0.90;;
70953;SDS011;58618;47.490;8.736;2023-11-21T04:25:44;4.65;;;0.93;;
70953;SDS011;58618;47.490;8.736;2023-11-21T04:28:31;3.70;;;1.07;;
70953;SDS011;58618;47.490;8.736;2023-11-21T04:31:19;5.40;;;1.02;;
70953;SDS011;58618;47.490;8.736;2023-11-21T04:34:06;2.95;;;1.15;;
70953;SDS011;58618;47.490;8.736;2023-11-21T04:36:54;2.70;;;0.93;;
70953;SDS011;58618;47.490;8.736;2023-11-21T04:39:42;3.33;;;0.80;;
70953;SDS011;58618;47.490;8.736;2023-11-21T04:42:30;3.13;;;0.97;;
70953;SDS011;58618;47.490;8.736;2023-11-21T04:45:17;3.25;;;0.70;;
70953;SDS011;58618;47.490;8.736;2023-11-21T04:48:05;2.33;;;1.10;;
70953;SDS011;58618;47.490;8.736;2023-11-21T04:50:52;2.85;;;1.00;;
70953;SDS011;58618;47.490;8.736;2023-11-21T04:53:39;3.10;;;0.95;;
70953;SDS011;58618;47.490;8.736;2023-11-21T04:56:28;2.23;;;0.67;;
70953;SDS011;58618;47.490;8.736;2023-11-21T04:59:16;2.83;;;0.82;;
70953;SDS011;58618;47.490;8.736;2023-11-21T05:02:03;2.90;;;0.90;;
70953;SDS011;58618;47.490;8.736;2023-11-21T05:04:51;3.92;;;0.95;;
70953;SDS011;58618;47.490;8.736;2023-11-21T05:07:39;4.00;;;0.80;;
70953;SDS011;58618;47.490;8.736;2023-11-21T05:10:27;2.40;;;0.97;;
70953;SDS011;58618;47.490;8.736;2023-11-21T05:13:16;2.47;;;1.00;;
70953;SDS011;58618;47.490;8.736;2023-11-21T05:16:04;4.03;;;1.02;;
70953;SDS011;58618;47.490;8.736;2023-11-21T05:18:52;2.60;;;0.95;;
70953;SDS011;58618;47.490;8.736;2023-11-21T05:21:42;4.00;;;1.00;;
70953;SDS011;58618;47.490;8.736;2023-11-21T05:24:29;3.10;;;1.00;;
70953;SDS011;58618;47.490;8.736;2023-11-21T05:27:17;4.20;;;1.08;;
70953;SDS011;58618;47.490;8.736;2023-11-21T05:30:06;3.42;;;0.93;;
70953;SDS011;58618;47.490;8.736;2023-11-21T05:32:57;1.48;;;0.80;;
70953;SDS011;58618;47.490;8.736;2023-11-21T05:35:45;5.35;;;1.00;;
70953;SDS011;58618;47.490;8.736;2023-11-21T05:38:32;5.07;;;0.97;;
70953;SDS011;58618;47.490;8.736;2023-11-21T05:41:20;4.35;;;1.00;;
70953;SDS011;58618;47.490;8.736;2023-11-21T05:44:07;6.38;;;1.10;;
70953;SDS011;58618;47.490;8.736;2023-11-21T05:46:56;3.00;;;0.90;;
70953;SDS011;58618;47.490;8.736;2023-11-21T05:49:44;2.25;;;1.20;;
70953;SDS011;58618;47.490;8.736;2023-11-21T05:52:36;4.80;;;1.07;;
70953;SDS011;58618;47.490;8.736;2023-11-21T05:55:24;3.13;;;0.95;;
70953;SDS011;58618;47.490;8.736;2023-11-21T05:58:11;4.32;;;0.90;;
70953;SDS011;58618;47.490;8.736;2023-11-21T06:00:59;3.10;;;1.00;;
70953;SDS011;58618;47.490;8.736;2023-11-21T06:03:48;4.60;;;1.30;;
70953;SDS011;58618;47.490;8.736;2023-11-21T06:06:35;2.30;;;1.00;;
70953;SDS011;58618;47.490;8.736;2023-11-21T06:09:23;3.55;;;1.20;;
70953;SDS011;58618;47.490;8.736;2023-11-21T06:12:11;2.33;;;1.00;;
70953;SDS011;58618;47.490;8.736;2023-11-21T06:14:58;4.13;;;1.02;;
70953;SDS011;58618;47.490;8.736;2023-11-21T06:17:46;3.38;;;1.10;;
70953;SDS011;58618;47.490;8.736;2023-11-21T06:20:39;3.93;;;1.23;;
70953;SDS011;58618;47.490;8.736;2023-11-21T06:23:26;1.95;;;0.90;;
70953;SDS011;58618;47.490;8.736;2023-11-21T06:26:14;4.00;;;1.10;;
70953;SDS011;58618;47.490;8.736;2023-11-21T06:29:01;3.63;;;0.88;;
70953;SDS011;58618;47.490;8.736;2023-11-21T06:31:49;2.38;;;0.95;;
70953;SDS011;58618;47.490;8.736;2023-11-21T06:34:36;2.80;;;0.97;;
70953;SDS011;58618;47.490;8.736;2023-11-21T06:37:26;1.60;;;0.90;;
70953;SDS011;58618;47.490;8.736;2023-11-21T06:40:13;5.95;;;1.20;;
70953;SDS011;58618;47.490;8.736;2023-11-21T06:43:01;3.13;;;1.65;;
70953;SDS011;58618;47.490;8.736;2023-11-21T06:45:50;4.63;;;1.00;;
70953;SDS011;58618;47.490;8.736;2023-11-21T06:48:38;1.50;;;1.00;;
70953;SDS011;58618;47.490;8.736;2023-11-21T06:51:26;3.30;;;1.05;;
70953;SDS011;58618;47.490;8.736;2023-11-21T06:54:15;2.63;;;1.05;;
70953;SDS011;58618;47.490;8.736;2023-11-21T06:57:03;1.75;;;0.93;;
70953;SDS011;58618;47.490;8.736;2023-11-21T06:59:50;3.13;;;1.23;;
70953;SDS011;58618;47.490;8.736;2023-11-21T07:02:38;1.97;;;1.00;;
70953;SDS011;58618;47.490;8.736;2023-11-21T07:05:25;5.25;;;1.30;;
70953;SDS011;58618;47.490;8.736;2023-11-21T07:08:13;4.10;;;1.40;;
70953;SDS011;58618;47.490;8.736;2023-11-21T07:11:02;4.68;;;1.20;;
70953;SDS011;58618;47.490;8.736;2023-11-21T07:16:18;1.93;;;1.13;;
70953;SDS011;58618;47.490;8.736;2023-11-21T07:19:06;3.40;;;1.23;;
70953;SDS011;58618;47.490;8.736;2023-11-21T07:22:12;1.63;;;1.08;;
70953;SDS011;58618;47.490;8.736;2023-11-21T07:25:07;4.65;;;1.23;;
70953;SDS011;58618;47.490;8.736;2023-11-21T07:27:59;4.38;;;1.27;;
70953;SDS011;58618;47.490;8.736;2023-11-21T07:30:47;3.67;;;1.40;;
70953;SDS011;58618;47.490;8.736;2023-11-21T07:33:34;2.95;;;1.05;;
70953;SDS011;58618;47.490;8.736;2023-11-21T07:36:21;1.83;;;1.10;;
70953;SDS011;58618;47.490;8.736;2023-11-21T07:39:09;5.47;;;1.20;;
70953;SDS011;58618;47.490;8.736;2023-11-21T07:41:57;3.55;;;1.35;;
70953;SDS011;58618;47.490;8.736;2023-11-21T07:47:21;2.92;;;1.27;;
70953;SDS011;58618;47.490;8.736;2023-11-21T07:50:12;3.10;;;1.30;;
70953;SDS011;58618;47.490;8.736;2023-11-21T07:53:00;2.45;;;1.27;;
70953;SDS011;58618;47.490;8.736;2023-11-21T07:55:47;2.78;;;1.50;;
70953;SDS011;58618;47.490;8.736;2023-11-21T07:58:35;4.93;;;1.30;;
70953;SDS011;58618;47.490;8.736;2023-11-21T08:01:23;4.07;;;1.70;;
70953;SDS011;58618;47.490;8.736;2023-11-21T08:04:12;4.22;;;1.40;;
70953;SDS011;58618;47.490;8.736;2023-11-21T08:06:59;3.17;;;1.30;;
70953;SDS011;58618;47.490;8.736;2023-11-21T08:09:47;6.40;;;1.70;;
70953;SDS011;58618;47.490;8.736;2023-11-21T08:12:36;3.60;;;1.50;;
70953;SDS011;58618;47.490;8.736;2023-11-21T08:15:24;5.03;;;1.60;;
70953;SDS011;58618;47.490;8.736;2023-11-21T08:18:11;3.80;;;1.70;;
70953;SDS011;58618;47.490;8.736;2023-11-21T08:21:02;3.00;;;1.42;;
70953;SDS011;58618;47.490;8.736;2023-11-21T08:23:51;4.18;;;1.52;;
70953;SDS011;58618;47.490;8.736;2023-11-21T08:26:40;4.63;;;1.60;;
70953;SDS011;58618;47.490;8.736;2023-11-21T08:29:28;5.95;;;1.50;;
70953;SDS011;58618;47.490;8.736;2023-11-21T08:32:17;4.47;;;1.63;;
70953;SDS011;58618;47.490;8.736;2023-11-21T08:35:07;5.15;;;1.52;;
70953;SDS011;58618;47.490;8.736;2023-11-21T08:38:01;2.53;;;1.30;;
70953;SDS011;58618;47.490;8.736;2023-11-21T08:40:51;3.13;;;1.30;;
70953;SDS011;58618;47.490;8.736;2023-11-21T08:43:40;4.65;;;1.30;;
70953;SDS011;58618;47.490;8.736;2023-11-21T08:46:29;3.90;;;1.20;;
70953;SDS011;58618;47.490;8.736;2023-11-21T08:49:17;6.30;;;1.35;;
70953;SDS011;58618;47.490;8.736;2023-11-21T08:52:04;3.85;;;1.20;;
70953;SDS011;58618;47.490;8.736;2023-11-21T08:54:58;2.03;;;1.37;;
70953;SDS011;58618;47.490;8.736;2023-11-21T08:57:53;4.65;;;1.40;;
70953;SDS011;58618;47.490;8.736;2023-11-21T09:00:44;2.25;;;1.33;;
70953;SDS011;58618;47.490;8.736;2023-11-21T09:03:36;3.88;;;1.40;;
70953;SDS011;58618;47.490;8.736;2023-11-21T09:06:26;5.32;;;1.40;;
70953;SDS011;58618;47.490;8.736;2023-11-21T09:09:13;5.33;;;1.47;;
70953;SDS011;58618;47.490;8.736;2023-11-21T09:12:03;5.75;;;1.50;;
70953;SDS011;58618;47.490;8.736;2023-11-21T09:14:51;2.85;;;1.60;;
70953;SDS011;58618;47.490;8.736;2023-11-21T09:17:42;2.40;;;1.40;;
70953;SDS011;58618;47.490;8.736;2023-11-21T09:20:30;3.60;;;1.65;;
70953;SDS011;58618;47.490;8.736;2023-11-21T09:23:22;4.87;;;1.57;;
70953;SDS011;58618;47.490;8.736;2023-11-21T09:26:18;3.95;;;1.38;;
70953;SDS011;58618;47.490;8.736;2023-11-21T09:29:23;3.42;;;1.60;;
70953;SDS011;58618;47.490;8.736;2023-11-21T09:32:11;1.92;;;1.13;;
70953;SDS011;58618;47.490;8.736;2023-11-21T09:35:14;5.50;;;1.85;;
70953;SDS011;58618;47.490;8.736;2023-11-21T09:38:08;3.30;;;1.47;;
70953;SDS011;58618;47.490;8.736;2023-11-21T09:40:59;4.22;;;1.33;;
70953;SDS011;58618;47.490;8.736;2023-11-21T09:43:48;3.53;;;1.52;;
70953;SDS011;58618;47.490;8.736;2023-11-21T09:46:43;1.98;;;1.23;;
70953;SDS011;58618;47.490;8.736;2023-11-21T09:49:35;3.15;;;1.33;;
70953;SDS011;58618;47.490;8.736;2023-11-21T09:52:26;1.63;;;1.30;;
70953;SDS011;58618;47.490;8.736;2023-11-21T09:55:17;5.60;;;1.48;;
70953;SDS011;58618;47.490;8.736;2023-11-21T09:58:06;2.25;;;1.35;;
70953;SDS011;58618;47.490;8.736;2023-11-21T10:00:57;1.92;;;1.40;;
70953;SDS011;58618;47.490;8.736;2023-11-21T10:03:50;2.92;;;1.90;;
70953;SDS011;58618;47.490;8.736;2023-11-21T10:06:38;4.03;;;1.50;;
70953;SDS011;58618;47.490;8.736;2023-11-21T10:09:33;1.95;;;1.55;;
70953;SDS011;58618;47.490;8.736;2023-11-21T10:12:20;2.85;;;1.75;;
70953;SDS011;58618;47.490;8.736;2023-11-21T10:15:11;2.38;;;1.40;;
70953;SDS011;58618;47.490;8.736;2023-11-21T10:18:02;3.47;;;1.98;;
70953;SDS011;58618;47.490;8.736;2023-11-21T10:20:53;1.90;;;1.60;;
70953;SDS011;58618;47.490;8.736;2023-11-21T10:23:42;4.60;;;1.60;;
70953;SDS011;58618;47.490;8.736;2023-11-21T10:26:30;3.47;;;1.63;;
70953;SDS011;58618;47.490;8.736;2023-11-21T10:29:28;3.22;;;1.58;;
70953;SDS011;58618;47.490;8.736;2023-11-21T10:32:16;4.43;;;1.80;;
70953;SDS011;58618;47.490;8.736;2023-11-21T10:35:04;2.83;;;1.87;;
70953;SDS011;58618;47.490;8.736;2023-11-21T10:38:00;4.20;;;1.60;;
70953;SDS011;58618;47.490;8.736;2023-11-21T10:40:49;2.95;;;1.77;;
70953;SDS011;58618;47.490;8.736;2023-11-21T10:43:40;3.78;;;1.40;;
70953;SDS011;58618;47.490;8.736;2023-11-21T10:46:28;2.78;;;1.77;;
70953;SDS011;58618;47.490;8.736;2023-11-21T10:49:16;3.00;;;1.50;;
70953;SDS011;58618;47.490;8.736;2023-11-21T10:52:04;3.28;;;1.30;;
70953;SDS011;58618;47.490;8.736;2023-11-21T10:54:53;1.63;;;1.40;;
70953;SDS011;58618;47.490;8.736;2023-11-21T10:57:41;2.90;;;1.60;;
70953;SDS011;58618;47.490;8.736;2023-11-21T11:00:29;4.13;;;1.73;;
70953;SDS011;58618;47.490;8.736;2023-11-21T11:03:16;3.73;;;1.47;;
70953;SDS011;58618;47.490;8.736;2023-11-21T11:06:04;2.30;;;1.30;;
70953;SDS011;58618;47.490;8.736;2023-11-21T11:08:57;1.95;;;1.40;;
70953;SDS011;58618;47.490;8.736;2023-11-21T11:11:46;1.77;;;1.25;;
70953;SDS011;58618;47.490;8.736;2023-11-21T11:14:34;1.83;;;1.30;;
70953;SDS011;58618;47.490;8.736;2023-11-21T11:17:23;3.07;;;1.40;;
70953;SDS011;58618;47.490;8.736;2023-11-21T11:20:16;1.48;;;1.10;;
70953;SDS011;58618;47.490;8.736;2023-11-21T11:23:13;2.40;;;1.50;;
70953;SDS011;58618;47.490;8.736;2023-11-21T11:26:16;3.78;;;1.30;;
70953;SDS011;58618;47.490;8.736;2023-11-21T11:29:17;1.90;;;1.33;;
70953;SDS011;58618;47.490;8.736;2023-11-21T11:32:16;2.43;;;1.30;;
70953;SDS011;58618;47.490;8.736;2023-11-21T11:35:14;2.25;;;1.48;;
70953;SDS011;58618;47.490;8.736;2023-11-21T11:38:08;3.63;;;1.77;;
70953;SDS011;58618;47.490;8.736;2023-11-21T11:40:57;4.25;;;1.98;;
70953;SDS011;58618;47.490;8.736;2023-11-21T11:43:48;3.45;;;1.70;;
70953;SDS011;58618;47.490;8.736;2023-11-21T11:46:41;2.67;;;1.60;;
70953;SDS011;58618;47.490;8.736;2023-11-21T11:49:32;4.07;;;1.90;;
70953;SDS011;58618;47.490;8.736;2023-11-21T11:52:36;2.38;;;1.60;;
70953;SDS011;58618;47.490;8.736;2023-11-21T11:55:27;2.45;;;1.55;;
70953;SDS011;58618;47.490;8.736;2023-11-21T12:26:44;3.00;;;1.77;;
70953;SDS011;58618;47.490;8.736;2023-11-21T12:29:32;2.85;;;1.90;;
70953;SDS011;58618;47.490;8.736;2023-11-21T12:32:19;3.33;;;1.92;;
70953;SDS011;58618;47.490;8.736;2023-11-21T12:35:07;3.40;;;2.00;;
70953;SDS011;58618;47.490;8.736;2023-11-21T12:37:55;3.08;;;2.20;;
70953;SDS011;58618;47.490;8.736;2023-11-21T12:40:44;5.37;;;3.00;;
70953;SDS011;58618;47.490;8.736;2023-11-21T12:43:33;3.58;;;2.10;;
70953;SDS011;58618;47.490;8.736;2023-11-21T12:46:21;3.90;;;1.95;;
70953;SDS011;58618;47.490;8.736;2023-11-21T12:49:12;2.28;;;2.00;;
70953;SDS011;58618;47.490;8.736;2023-11-21T12:52:03;2.70;;;1.85;;
70953;SDS011;58618;47.490;8.736;2023-11-21T12:54:57;3.13;;;1.70;;
70953;SDS011;58618;47.490;8.736;2023-11-21T12:57:45;3.17;;;1.55;;
70953;SDS011;58618;47.490;8.736;2023-11-21T13:00:42;5.25;;;2.10;;
70953;SDS011;58618;47.490;8.736;2023-11-21T13:19:05;3.22;;;2.10;;
70953;SDS011;58618;47.490;8.736;2023-11-21T13:21:54;3.13;;;1.70;;
70953;SDS011;58618;47.490;8.736;2023-11-21T13:29:38;3.17;;;1.90;;
70953;SDS011;58618;47.490;8.736;2023-11-21T13:32:26;3.20;;;1.98;;
70953;SDS011;58618;47.490;8.736;2023-11-21T13:35:16;3.27;;;1.60;;
70953;SDS011;58618;47.490;8.736;2023-11-21T13:38:07;2.47;;;1.10;;
70953;SDS011;58618;47.490;8.736;2023-11-21T13:40:55;1.42;;;1.10;;
70953;SDS011;58618;47.490;8.736;2023-11-21T13:43:44;3.70;;;0.95;;
70953;SDS011;58618;47.490;8.736;2023-11-21T13:46:38;1.50;;;0.90;;
70953;SDS011;58618;47.490;8.736;2023-11-21T13:49:25;1.20;;;1.00;;
70953;SDS011;58618;47.490;8.736;2023-11-21T13:52:14;1.15;;;0.90;;
70953;SDS011;58618;47.490;8.736;2023-11-21T13:55:03;1.05;;;0.90;;
70953;SDS011;58618;47.490;8.736;2023-11-21T13:57:53;3.00;;;1.00;;
70953;SDS011;58618;47.490;8.736;2023-11-21T14:00:40;1.38;;;1.00;;
70953;SDS011;58618;47.490;8.736;2023-11-21T14:03:31;1.30;;;0.87;;
70953;SDS011;58618;47.490;8.736;2023-11-21T14:06:25;1.50;;;0.90;;
70953;SDS011;58618;47.490;8.736;2023-11-21T14:09:21;1.30;;;0.90;;
70953;SDS011;58618;47.490;8.736;2023-11-21T14:12:18;2.47;;;0.90;;
70953;SDS011;58618;47.490;8.736;2023-11-21T14:15:14;2.42;;;0.90;;
70953;SDS011;58618;47.490;8.736;2023-11-21T14:18:04;1.47;;;1.10;;
70953;SDS011;58618;47.490;8.736;2023-11-21T14:20:56;2.05;;;0.90;;
70953;SDS011;58618;47.490;8.736;2023-11-21T14:23:43;1.73;;;1.00;;
70953;SDS011;58618;47.490;8.736;2023-11-21T14:26:32;2.67;;;1.20;;
70953;SDS011;58618;47.490;8.736;2023-11-21T14:29:21;3.25;;;1.13;;
70953;SDS011;58618;47.490;8.736;2023-11-21T14:32:09;2.70;;;1.20;;
70953;SDS011;58618;47.490;8.736;2023-11-21T14:34:57;2.80;;;1.00;;
70953;SDS011;58618;47.490;8.736;2023-11-21T14:37:44;2.00;;;1.30;;
70953;SDS011;58618;47.490;8.736;2023-11-21T14:40:32;1.75;;;1.00;;
70953;SDS011;58618;47.490;8.736;2023-11-21T14:43:23;2.53;;;0.90;;
70953;SDS011;58618;47.490;8.736;2023-11-21T14:46:12;1.13;;;1.03;;
70953;SDS011;58618;47.490;8.736;2023-11-21T14:49:03;2.10;;;1.15;;
70953;SDS011;58618;47.490;8.736;2023-11-21T14:52:05;2.40;;;0.90;;
70953;SDS011;58618;47.490;8.736;2023-11-21T14:55:03;3.50;;;1.13;;
70953;SDS011;58618;47.490;8.736;2023-11-21T14:58:06;3.95;;;1.10;;
70953;SDS011;58618;47.490;8.736;2023-11-21T15:00:59;2.07;;;1.00;;
70953;SDS011;58618;47.490;8.736;2023-11-21T15:03:46;1.95;;;1.10;;
70953;SDS011;58618;47.490;8.736;2023-11-21T15:06:36;1.30;;;0.95;;
70953;SDS011;58618;47.490;8.736;2023-11-21T15:09:26;2.85;;;1.17;;
70953;SDS011;58618;47.490;8.736;2023-11-21T15:12:27;1.23;;;0.90;;
70953;SDS011;58618;47.490;8.736;2023-11-21T15:15:19;2.23;;;1.00;;
70953;SDS011;58618;47.490;8.736;2023-11-21T15:18:08;1.13;;;1.00;;
70953;SDS011;58618;47.490;8.736;2023-11-21T15:20:58;1.58;;;1.00;;
70953;SDS011;58618;47.490;8.736;2023-11-21T15:23:46;3.25;;;1.00;;
70953;SDS011;58618;47.490;8.736;2023-11-21T15:26:33;2.60;;;1.17;;
70953;SDS011;58618;47.490;8.736;2023-11-21T15:29:21;2.97;;;1.07;;
70953;SDS011;58618;47.490;8.736;2023-11-21T15:32:09;1.50;;;1.05;;
70953;SDS011;58618;47.490;8.736;2023-11-21T15:34:58;2.17;;;1.40;;
70953;SDS011;58618;47.490;8.736;2023-11-21T15:37:45;1.65;;;1.20;;
70953;SDS011;58618;47.490;8.736;2023-11-21T15:40:33;1.33;;;1.15;;
70953;SDS011;58618;47.490;8.736;2023-11-21T15:43:20;1.87;;;1.40;;
70953;SDS011;58618;47.490;8.736;2023-11-21T15:46:08;2.00;;;1.45;;
70953;SDS011;58618;47.490;8.736;2023-11-21T15:48:55;4.70;;;1.10;;
70953;SDS011;58618;47.490;8.736;2023-11-21T15:51:44;2.78;;;1.30;;
70953;SDS011;58618;47.490;8.736;2023-11-21T15:54:33;2.03;;;1.60;;
70953;SDS011;58618;47.490;8.736;2023-11-21T15:57:21;2.20;;;1.70;;
70953;SDS011;58618;47.490;8.736;2023-11-21T16:00:09;3.40;;;2.05;;
70953;SDS011;58618;47.490;8.736;2023-11-21T16:03:02;4.05;;;1.95;;
70953;SDS011;58618;47.490;8.736;2023-11-21T16:05:52;2.72;;;1.80;;
70953;SDS011;58618;47.490;8.736;2023-11-21T16:08:40;2.35;;;1.73;;
70953;SDS011;58618;47.490;8.736;2023-11-21T16:11:28;3.00;;;1.57;;
70953;SDS011;58618;47.490;8.736;2023-11-21T16:14:16;4.55;;;1.65;;
70953;SDS011;58618;47.490;8.736;2023-11-21T16:17:05;3.00;;;1.90;;
70953;SDS011;58618;47.490;8.736;2023-11-21T16:19:53;4.03;;;1.80;;
70953;SDS011;58618;47.490;8.736;2023-11-21T16:35:35;2.72;;;1.70;;
70953;SDS011;58618;47.490;8.736;2023-11-21T16:38:25;2.50;;;1.77;;
70953;SDS011;58618;47.490;8.736;2023-11-21T16:41:12;2.00;;;1.67;;
70953;SDS011;58618;47.490;8.736;2023-11-21T16:44:00;3.00;;;2.35;;
70953;SDS011;58618;47.490;8.736;2023-11-21T16:49:20;2.58;;;1.73;;
70953;SDS011;58618;47.490;8.736;2023-11-21T16:52:09;3.90;;;2.27;;
70953;SDS011;58618;47.490;8.736;2023-11-21T16:54:56;4.50;;;2.70;;
70953;SDS011;58618;47.490;8.736;2023-11-21T16:57:43;5.57;;;3.63;;
70953;SDS011;58618;47.490;8.736;2023-11-21T17:00:31;5.55;;;3.58;;
70953;SDS011;58618;47.490;8.736;2023-11-21T17:03:18;6.65;;;3.15;;
70953;SDS011;58618;47.490;8.736;2023-11-21T17:06:06;5.13;;;2.97;;
70953;SDS011;58618;47.490;8.736;2023-11-21T17:08:56;7.82;;;5.53;;
70953;SDS011;58618;47.490;8.736;2023-11-21T17:11:45;6.60;;;4.68;;
70953;SDS011;58618;47.490;8.736;2023-11-21T17:14:34;6.47;;;3.25;;
70953;SDS011;58618;47.490;8.736;2023-11-21T17:17:21;6.40;;;3.20;;
70953;SDS011;58618;47.490;8.736;2023-11-21T17:20:08;7.37;;;3.80;;
70953;SDS011;58618;47.490;8.736;2023-11-21T17:22:56;6.07;;;3.92;;
70953;SDS011;58618;47.490;8.736;2023-11-21T17:25:46;7.22;;;3.85;;
70953;SDS011;58618;47.490;8.736;2023-11-21T17:28:33;7.15;;;3.72;;
70953;SDS011;58618;47.490;8.736;2023-11-21T17:31:20;6.43;;;3.85;;
70953;SDS011;58618;47.490;8.736;2023-11-21T17:34:08;6.60;;;4.03;;
70953;SDS011;58618;47.490;8.736;2023-11-21T17:36:55;5.97;;;3.65;;
70953;SDS011;58618;47.490;8.736;2023-11-21T17:39:43;7.63;;;4.45;;
70953;SDS011;58618;47.490;8.736;2023-11-21T17:42:31;17.17;;;10.38;;
70953;SDS011;58618;47.490;8.736;2023-11-21T17:45:19;9.00;;;5.05;;
70953;SDS011;58618;47.490;8.736;2023-11-21T17:48:06;9.40;;;4.33;;
70953;SDS011;58618;47.490;8.736;2023-11-21T17:50:54;7.95;;;4.40;;
70953;SDS011;58618;47.490;8.736;2023-11-21T17:53:42;6.15;;;4.10;;
70953;SDS011;58618;47.490;8.736;2023-11-21T17:56:30;7.65;;;4.15;;
70953;SDS011;58618;47.490;8.736;2023-11-21T17:59:19;6.70;;;4.47;;
70953;SDS011;58618;47.490;8.736;2023-11-21T18:02:07;10.10;;;4.37;;
70953;SDS011;58618;47.490;8.736;2023-11-21T18:04:55;7.63;;;4.30;;
70953;SDS011;58618;47.490;8.736;2023-11-21T18:10:15;7.10;;;4.00;;
70953;SDS011;58618;47.490;8.736;2023-11-21T18:15:33;8.60;;;4.40;;
70953;SDS011;58618;47.490;8.736;2023-11-21T18:18:21;7.30;;;4.15;;